Time;durP1;ratioP1;P1;durP2;ratioP2;P2;SDS_P1;SDS_P2;PMS_P1;PMS_P2;Temp;Humidity;BMP_temperature;BMP_pressure;BME280_temperature;BME280_humidity;BME280_pressure;Samples;Min_cycle;Max_cycle;Signal;HPM_P1;HPM_P2
2023/12/12 00:01:49;0.00;0.00;0.62;0.00;0.00;0.62;5.17;3.90;;;21.10;27.40;;;;;;2264310;61;20430;-52
2023/12/12 00:04:34;0.00;0.00;0.62;0.00;0.00;0.62;6.00;4.37;;;21.10;27.40;;;;;;2264331;61;20406;-57
2023/12/12 00:07:19;0.00;0.00;0.62;0.00;0.00;0.62;4.97;3.87;;;21.10;27.40;;;;;;2264484;61;20434;-58
2023/12/12 00:10:04;0.00;0.00;0.62;0.00;0.00;0.62;6.93;4.20;;;21.10;27.40;;;;;;2264486;61;20387;-53
2023/12/12 00:12:49;0.00;0.00;0.62;0.00;0.00;0.62;6.83;4.10;;;21.10;27.40;;;;;;2263802;61;20480;-54
2023/12/12 00:15:35;0.00;0.00;0.62;0.00;0.00;0.62;5.90;4.27;;;21.10;27.40;;;;;;2264773;61;20400;-54
2023/12/12 00:18:20;0.00;0.00;0.62;0.00;0.00;0.62;3.80;2.97;;;21.10;27.40;;;;;;2264048;61;20368;-54
2023/12/12 00:21:05;0.00;0.00;0.62;0.00;0.00;0.62;4.97;3.40;;;21.10;27.40;;;;;;2261471;61;20408;-53
2023/12/12 00:23:49;0.00;0.00;0.62;0.00;0.00;0.62;4.40;3.00;;;21.10;27.40;;;;;;2264360;61;20379;-55
2023/12/12 00:26:34;0.00;0.00;0.62;0.00;0.00;0.62;4.90;3.30;;;21.10;27.40;;;;;;2264310;61;20402;-54
2023/12/12 00:29:19;0.00;0.00;0.62;0.00;0.00;0.62;4.20;3.30;;;21.10;27.40;;;;;;2264655;61;20462;-57
2023/12/12 00:32:05;0.00;0.00;0.62;0.00;0.00;0.62;4.10;3.20;;;21.10;27.90;;;;;;2264290;61;20514;-53
2023/12/12 00:34:51;0.00;0.00;0.62;0.00;0.00;0.62;4.60;3.50;;;21.10;27.40;;;;;;2264052;61;20388;-55
2023/12/12 00:37:36;0.00;0.00;0.62;0.00;0.00;0.62;4.57;3.17;;;21.10;27.40;;;;;;2264549;61;20783;-53
2023/12/12 00:40:20;0.00;0.00;0.62;0.00;0.00;0.62;5.30;3.43;;;21.10;27.40;;;;;;2264233;61;20364;-57
2023/12/12 00:43:05;0.00;0.00;0.62;0.00;0.00;0.62;4.67;3.07;;;21.10;27.40;;;;;;2260973;61;20387;-58
2023/12/12 00:45:50;0.00;0.00;0.62;0.00;0.00;0.62;4.70;3.23;;;21.10;27.40;;;;;;2263388;61;20368;-55
2023/12/12 00:48:36;0.00;0.00;0.62;0.00;0.00;0.62;3.63;2.80;;;21.10;27.40;;;;;;2261002;61;20356;-56
2023/12/12 00:51:20;0.00;0.00;0.62;0.00;0.00;0.62;3.83;2.90;;;21.20;27.40;;;;;;2264698;61;20387;-55
2023/12/12 00:54:05;0.00;0.00;0.62;0.00;0.00;0.62;4.20;3.07;;;21.10;27.40;;;;;;2264576;61;20438;-52
2023/12/12 00:56:50;0.00;0.00;0.62;0.00;0.00;0.62;4.10;2.97;;;21.10;27.40;;;;;;2264111;61;20431;-54
2023/12/12 00:59:34;0.00;0.00;0.62;0.00;0.00;0.62;3.60;2.47;;;21.10;27.40;;;;;;2261291;61;20360;-56
2023/12/12 01:02:22;0.00;0.00;0.62;0.00;0.00;0.62;3.50;2.40;;;21.10;27.40;;;;;;2260668;61;20455;-58
2023/12/12 01:05:09;0.00;0.00;0.62;0.00;0.00;0.62;3.63;2.50;;;21.10;27.90;;;;;;2264664;61;20364;-57
2023/12/12 01:07:54;0.00;0.00;0.62;0.00;0.00;0.62;4.37;2.90;;;21.10;27.40;;;;;;2264633;61;20368;-56
2023/12/12 01:10:39;0.00;0.00;0.62;0.00;0.00;0.62;4.37;3.23;;;21.10;27.40;;;;;;2264388;61;20384;-58
2023/12/12 01:16:00;0.00;0.00;0.62;0.00;0.00;0.62;4.00;2.33;;;21.10;27.40;;;;;;2266523;61;20377;-52
2023/12/12 01:18:44;0.00;0.00;0.62;0.00;0.00;0.62;4.30;2.90;;;21.10;27.40;;;;;;2264158;61;20968;-52
2023/12/12 01:21:30;0.00;0.00;0.62;0.00;0.00;0.62;4.00;3.43;;;21.10;27.40;;;;;;2265186;61;20410;-50
2023/12/12 01:24:15;0.00;0.00;0.62;0.00;0.00;0.62;3.37;2.43;;;21.10;27.40;;;;;;2265362;61;20388;-54
2023/12/12 01:27:00;0.00;0.00;0.62;0.00;0.00;0.62;3.27;2.40;;;21.10;27.40;;;;;;2265187;61;20426;-56
2023/12/12 01:29:45;0.00;0.00;0.62;0.00;0.00;0.62;3.07;2.53;;;21.10;27.40;;;;;;2265238;61;20391;-53
2023/12/12 01:32:30;0.00;0.00;0.62;0.00;0.00;0.62;3.73;2.73;;;21.10;27.40;;;;;;2264607;61;20812;-51
2023/12/12 01:35:15;0.00;0.00;0.62;0.00;0.00;0.62;3.20;2.43;;;21.10;27.40;;;;;;2265326;61;20379;-53
2023/12/12 01:38:01;0.00;0.00;0.62;0.00;0.00;0.62;2.97;2.50;;;21.10;27.40;;;;;;2265195;61;20364;-54
2023/12/12 01:40:47;0.00;0.00;0.62;0.00;0.00;0.62;3.03;2.30;;;21.10;27.40;;;;;;2264913;61;20364;-54
2023/12/12 01:43:33;0.00;0.00;0.62;0.00;0.00;0.62;4.00;2.50;;;21.10;27.40;;;;;;2264901;61;20838;-49
2023/12/12 01:46:19;0.00;0.00;0.62;0.00;0.00;0.62;3.97;2.80;;;21.10;27.40;;;;;;2265306;61;20875;-54
2023/12/12 01:49:04;0.00;0.00;0.62;0.00;0.00;0.62;3.03;2.23;;;21.10;27.40;;;;;;2264940;61;20433;-54
2023/12/12 01:51:49;0.00;0.00;0.62;0.00;0.00;0.62;3.00;2.20;;;21.10;27.40;;;;;;2264794;61;20772;-52
2023/12/12 01:54:38;0.00;0.00;0.62;0.00;0.00;0.62;3.10;2.33;;;21.10;27.40;;;;;;2264741;61;20789;-54
2023/12/12 01:57:23;0.00;0.00;0.62;0.00;0.00;0.62;3.40;2.13;;;21.10;27.40;;;;;;2262099;61;20418;-53
2023/12/12 02:00:10;0.00;0.00;0.62;0.00;0.00;0.62;2.80;2.00;;;21.10;27.40;;;;;;2261139;61;20383;-51
2023/12/12 02:02:56;0.00;0.00;0.62;0.00;0.00;0.62;3.67;2.30;;;21.10;27.40;;;;;;2260371;61;20558;-55
2023/12/12 02:05:42;0.00;0.00;0.62;0.00;0.00;0.62;3.10;2.20;;;21.10;27.40;;;;;;2261039;61;20387;-53
2023/12/12 02:08:26;0.00;0.00;0.62;0.00;0.00;0.62;2.87;2.13;;;21.10;27.40;;;;;;2261101;61;20360;-51
2023/12/12 02:11:12;0.00;0.00;0.62;0.00;0.00;0.62;2.23;1.60;;;21.10;27.40;;;;;;2257654;61;20442;-55
2023/12/12 02:13:57;0.00;0.00;0.62;0.00;0.00;0.62;3.73;2.27;;;21.10;27.40;;;;;;2260759;61;20396;-53
2023/12/12 02:16:42;0.00;0.00;0.62;0.00;0.00;0.62;3.63;2.30;;;21.10;27.40;;;;;;2256869;61;20486;-51
2023/12/12 02:19:28;0.00;0.00;0.62;0.00;0.00;0.62;3.50;2.10;;;21.10;27.40;;;;;;2256957;61;20362;-52
2023/12/12 02:22:14;0.00;0.00;0.62;0.00;0.00;0.62;2.87;2.13;;;21.10;27.40;;;;;;2256584;61;20942;-55
2023/12/12 02:24:59;0.00;0.00;0.62;0.00;0.00;0.62;2.87;2.20;;;21.10;27.40;;;;;;2256559;61;20936;-51
2023/12/12 02:27:44;0.00;0.00;0.62;0.00;0.00;0.62;3.10;2.20;;;21.10;27.40;;;;;;2257040;61;20425;-52
2023/12/12 02:30:29;0.00;0.00;0.62;0.00;0.00;0.62;2.83;1.90;;;21.10;27.40;;;;;;2256895;61;20934;-50
2023/12/12 02:33:13;0.00;0.00;0.62;0.00;0.00;0.62;3.10;2.13;;;21.10;27.40;;;;;;2256287;61;20398;-51
2023/12/12 02:35:58;0.00;0.00;0.62;0.00;0.00;0.62;3.13;2.00;;;21.10;27.40;;;;;;2257018;61;20465;-49
2023/12/12 02:38:44;0.00;0.00;0.62;0.00;0.00;0.62;2.60;1.80;;;21.10;27.40;;;;;;2256719;61;20389;-54
2023/12/12 02:41:28;0.00;0.00;0.62;0.00;0.00;0.62;2.70;1.73;;;21.10;27.40;;;;;;2257009;61;20806;-52
2023/12/12 02:44:13;0.00;0.00;0.62;0.00;0.00;0.62;2.47;2.10;;;21.10;27.40;;;;;;2256695;61;20385;-50
2023/12/12 02:46:58;0.00;0.00;0.62;0.00;0.00;0.62;2.67;1.80;;;21.10;27.40;;;;;;2256544;61;20408;-55
2023/12/12 02:49:42;0.00;0.00;0.62;0.00;0.00;0.62;2.33;1.57;;;21.10;27.40;;;;;;2256793;61;20382;-53
2023/12/12 02:52:27;0.00;0.00;0.62;0.00;0.00;0.62;2.80;1.90;;;21.10;27.40;;;;;;2259666;61;20368;-54
2023/12/12 02:55:13;0.00;0.00;0.62;0.00;0.00;0.62;2.50;1.60;;;21.10;27.40;;;;;;2257507;61;20384;-52
2023/12/12 02:57:58;0.00;0.00;0.62;0.00;0.00;0.62;3.10;2.07;;;21.10;27.40;;;;;;2497399;53;20364;-54
2023/12/12 03:00:42;0.00;0.00;0.62;0.00;0.00;0.62;2.80;2.00;;;21.10;27.40;;;;;;2260867;61;20364;-54
2023/12/12 03:03:27;0.00;0.00;0.62;0.00;0.00;0.62;3.17;1.90;;;21.10;27.40;;;;;;2260628;61;20921;-49
2023/12/12 03:06:11;0.00;0.00;0.62;0.00;0.00;0.62;2.93;1.77;;;21.10;27.40;;;;;;2261190;61;21041;-52
2023/12/12 03:08:56;0.00;0.00;0.62;0.00;0.00;0.62;2.70;1.80;;;21.10;27.40;;;;;;2260373;61;20365;-52
2023/12/12 03:11:42;0.00;0.00;0.62;0.00;0.00;0.62;3.27;1.70;;;21.10;27.40;;;;;;2260517;61;20360;-55
2023/12/12 03:14:30;0.00;0.00;0.62;0.00;0.00;0.62;2.70;1.93;;;21.10;27.40;;;;;;2261544;61;20388;-51
2023/12/12 03:17:15;0.00;0.00;0.62;0.00;0.00;0.62;1.90;1.27;;;21.10;27.40;;;;;;2260583;61;20420;-55
2023/12/12 03:20:00;0.00;0.00;0.62;0.00;0.00;0.62;2.40;1.70;;;21.10;27.90;;;;;;2260859;61;20495;-50
2023/12/12 03:22:45;0.00;0.00;0.62;0.00;0.00;0.62;2.73;1.57;;;21.10;27.40;;;;;;2260630;61;20369;-54
2023/12/12 03:25:29;0.00;0.00;0.62;0.00;0.00;0.62;2.13;1.43;;;21.10;27.40;;;;;;2260638;61;20396;-53
2023/12/12 03:28:15;0.00;0.00;0.62;0.00;0.00;0.62;2.17;1.60;;;21.10;27.40;;;;;;2260960;61;20372;-54
2023/12/12 03:31:00;0.00;0.00;0.62;0.00;0.00;0.62;2.17;1.70;;;21.10;27.40;;;;;;2260181;61;20409;-51
2023/12/12 03:33:44;0.00;0.00;0.62;0.00;0.00;0.62;2.50;1.50;;;21.10;27.40;;;;;;2260520;61;20427;-54
2023/12/12 03:36:29;0.00;0.00;0.62;0.00;0.00;0.62;2.07;1.30;;;21.10;27.40;;;;;;2260648;61;20369;-52
2023/12/12 03:39:14;0.00;0.00;0.62;0.00;0.00;0.62;3.10;2.00;;;21.10;27.40;;;;;;2260569;61;20364;-49
2023/12/12 03:41:59;0.00;0.00;0.62;0.00;0.00;0.62;2.43;1.77;;;21.10;27.40;;;;;;2260292;61;21033;-54
2023/12/12 03:44:45;0.00;0.00;0.62;0.00;0.00;0.62;2.10;1.40;;;21.10;27.40;;;;;;2260871;61;20428;-52
2023/12/12 03:47:30;0.00;0.00;0.62;0.00;0.00;0.62;2.20;1.40;;;21.10;27.40;;;;;;2260459;61;20369;-55
2023/12/12 03:50:14;0.00;0.00;0.62;0.00;0.00;0.62;2.60;1.70;;;21.10;27.40;;;;;;2260549;61;20897;-55
2023/12/12 03:52:59;0.00;0.00;0.62;0.00;0.00;0.62;2.10;1.37;;;21.10;27.40;;;;;;2259910;61;20388;-54
2023/12/12 03:55:44;0.00;0.00;0.62;0.00;0.00;0.62;2.10;1.20;;;21.10;27.40;;;;;;2260680;61;20904;-51
2023/12/12 03:58:29;0.00;0.00;0.62;0.00;0.00;0.62;1.63;0.90;;;21.10;27.40;;;;;;2260863;61;20814;-52
2023/12/12 04:01:15;0.00;0.00;0.62;0.00;0.00;0.62;2.63;1.87;;;21.10;27.40;;;;;;2260629;61;20364;-53
2023/12/12 04:03:59;0.00;0.00;0.62;0.00;0.00;0.62;2.37;1.73;;;21.10;27.40;;;;;;2260480;61;20435;-53
2023/12/12 04:06:45;0.00;0.00;0.62;0.00;0.00;0.62;2.40;1.63;;;21.10;27.40;;;;;;2260708;61;20649;-54
2023/12/12 04:09:29;0.00;0.00;0.62;0.00;0.00;0.62;2.70;1.60;;;21.10;27.40;;;;;;2260360;61;20389;-52
2023/12/12 04:12:14;0.00;0.00;0.62;0.00;0.00;0.62;1.73;1.30;;;21.10;27.40;;;;;;2260346;61;20461;-54
2023/12/12 04:14:58;0.00;0.00;0.62;0.00;0.00;0.62;1.90;1.40;;;21.10;27.40;;;;;;2257897;61;20372;-52
2023/12/12 04:17:44;0.00;0.00;0.62;0.00;0.00;0.62;2.40;1.60;;;21.10;27.40;;;;;;2264927;61;20398;-52
2023/12/12 04:20:29;0.00;0.00;0.62;0.00;0.00;0.62;2.23;1.57;;;21.10;27.40;;;;;;2264463;61;20891;-54
2023/12/12 04:23:42;0.00;0.00;0.62;0.00;0.00;0.62;1.77;1.13;;;21.10;27.40;;;;;;2296214;40;20782;-54
2023/12/12 04:26:29;0.00;0.00;0.62;0.00;0.00;0.62;2.70;1.30;;;21.10;27.40;;;;;;2274088;61;20882;-53
2023/12/12 04:29:14;0.00;0.00;0.62;0.00;0.00;0.62;3.10;1.43;;;21.10;27.40;;;;;;2273026;61;20362;-50
2023/12/12 04:31:58;0.00;0.00;0.62;0.00;0.00;0.62;2.13;1.43;;;21.10;27.40;;;;;;2272363;61;20350;-54
2023/12/12 04:34:45;0.00;0.00;0.62;0.00;0.00;0.62;2.03;1.20;;;21.10;27.40;;;;;;2272833;61;20382;-52
2023/12/12 04:37:30;0.00;0.00;0.62;0.00;0.00;0.62;1.73;1.10;;;21.10;27.40;;;;;;2272407;61;20366;-54
2023/12/12 04:40:14;0.00;0.00;0.62;0.00;0.00;0.62;2.17;1.27;;;21.10;27.40;;;;;;2272699;61;20386;-54
2023/12/12 04:42:59;0.00;0.00;0.62;0.00;0.00;0.62;2.00;1.43;;;21.10;27.40;;;;;;2272326;61;20389;-52
2023/12/12 04:45:43;0.00;0.00;0.62;0.00;0.00;0.62;2.23;1.60;;;21.10;27.40;;;;;;2272485;61;20412;-53
2023/12/12 04:48:28;0.00;0.00;0.62;0.00;0.00;0.62;2.00;1.23;;;21.10;27.40;;;;;;2272713;61;20357;-55
2023/12/12 04:51:14;0.00;0.00;0.62;0.00;0.00;0.62;2.70;1.30;;;21.00;27.30;;;;;;2272683;61;20386;-51
2023/12/12 04:53:59;0.00;0.00;0.62;0.00;0.00;0.62;2.10;1.13;;;21.00;27.30;;;;;;2271164;60;20910;-51
2023/12/12 04:56:43;0.00;0.00;0.62;0.00;0.00;0.62;1.70;1.00;;;21.10;27.40;;;;;;2273412;61;20865;-54
2023/12/12 04:59:28;0.00;0.00;0.62;0.00;0.00;0.62;2.20;1.40;;;21.10;27.90;;;;;;2273090;61;20362;-52
2023/12/12 05:02:12;0.00;0.00;0.62;0.00;0.00;0.62;2.17;1.30;;;21.10;27.40;;;;;;2273054;61;20898;-51
2023/12/12 05:04:57;0.00;0.00;0.62;0.00;0.00;0.62;1.87;1.00;;;21.10;27.40;;;;;;2272955;61;20454;-53
2023/12/12 05:07:43;0.00;0.00;0.62;0.00;0.00;0.62;1.93;1.30;;;21.00;27.30;;;;;;2273016;61;20362;-55
2023/12/12 05:10:27;0.00;0.00;0.62;0.00;0.00;0.62;1.90;1.10;;;21.10;27.40;;;;;;2273430;61;20802;-53
2023/12/12 05:13:12;0.00;0.00;0.62;0.00;0.00;0.62;1.87;1.13;;;21.10;27.40;;;;;;2273135;61;20386;-51
2023/12/12 05:15:57;0.00;0.00;0.62;0.00;0.00;0.62;1.90;1.20;;;21.00;27.30;;;;;;2273131;61;20361;-55
2023/12/12 05:18:41;0.00;0.00;0.62;0.00;0.00;0.62;1.93;0.97;;;21.10;27.40;;;;;;2273334;61;20431;-52
2023/12/12 05:21:26;0.00;0.00;0.62;0.00;0.00;0.62;2.00;1.20;;;21.10;27.40;;;;;;2273034;61;20361;-52
2023/12/12 05:24:12;0.00;0.00;0.62;0.00;0.00;0.62;1.60;1.07;;;21.10;27.40;;;;;;2274004;60;21908;-54
2023/12/12 05:26:57;0.00;0.00;0.62;0.00;0.00;0.62;1.90;1.17;;;21.00;27.30;;;;;;2273400;61;20404;-53
2023/12/12 05:29:41;0.00;0.00;0.62;0.00;0.00;0.62;1.97;1.10;;;21.00;27.30;;;;;;2273101;61;20377;-55
2023/12/12 05:32:26;0.00;0.00;0.62;0.00;0.00;0.62;1.67;1.10;;;21.00;27.30;;;;;;2272950;61;20759;-55
2023/12/12 05:35:10;0.00;0.00;0.62;0.00;0.00;0.62;2.20;1.20;;;21.10;27.40;;;;;;2273461;61;20818;-53
2023/12/12 05:37:55;0.00;0.00;0.62;0.00;0.00;0.62;1.97;1.43;;;21.00;27.30;;;;;;2272968;61;20866;-52
2023/12/12 05:40:41;0.00;0.00;0.62;0.00;0.00;0.62;2.00;1.10;;;21.00;27.30;;;;;;2273226;61;20412;-53
2023/12/12 05:43:25;0.00;0.00;0.62;0.00;0.00;0.62;1.87;1.10;;;21.00;27.30;;;;;;2273070;61;20930;-51
2023/12/12 05:46:10;0.00;0.00;0.62;0.00;0.00;0.62;1.97;1.10;;;21.00;27.30;;;;;;2273406;61;20437;-54
2023/12/12 05:48:55;0.00;0.00;0.62;0.00;0.00;0.62;1.87;1.20;;;21.00;27.30;;;;;;2273246;61;20476;-53
2023/12/12 05:51:40;0.00;0.00;0.62;0.00;0.00;0.62;1.53;1.00;;;21.00;27.30;;;;;;2272394;61;20787;-55
2023/12/12 05:54:24;0.00;0.00;0.62;0.00;0.00;0.62;2.43;1.50;;;21.00;27.30;;;;;;2273450;61;20470;-53
2023/12/12 05:57:10;0.00;0.00;0.62;0.00;0.00;0.62;2.00;1.23;;;21.00;27.30;;;;;;2273285;61;20385;-51
2023/12/12 05:59:56;0.00;0.00;0.62;0.00;0.00;0.62;1.63;1.03;;;21.00;27.30;;;;;;2273256;61;20358;-55
2023/12/12 06:02:41;0.00;0.00;0.62;0.00;0.00;0.62;1.83;1.00;;;21.00;27.30;;;;;;2273058;61;20402;-54
2023/12/12 06:05:26;0.00;0.00;0.62;0.00;0.00;0.62;1.87;1.17;;;21.00;27.30;;;;;;2272789;60;20361;-55
2023/12/12 06:08:13;0.00;0.00;0.62;0.00;0.00;0.62;2.10;1.20;;;21.00;27.30;;;;;;2273241;61;20362;-56
2023/12/12 06:10:58;0.00;0.00;0.62;0.00;0.00;0.62;2.03;0.90;;;21.00;27.30;;;;;;2273110;61;20436;-50
2023/12/12 06:13:45;0.00;0.00;0.62;0.00;0.00;0.62;1.80;0.93;;;21.00;27.30;;;;;;2272259;61;20937;-56
2023/12/12 06:16:30;0.00;0.00;0.62;0.00;0.00;0.62;1.80;1.10;;;21.00;27.30;;;;;;2273222;61;20459;-50
2023/12/12 06:19:15;0.00;0.00;0.62;0.00;0.00;0.62;1.60;0.90;;;21.00;27.30;;;;;;2273113;61;20370;-53
2023/12/12 06:22:00;0.00;0.00;0.62;0.00;0.00;0.62;1.63;0.90;;;21.00;27.30;;;;;;2269290;61;20429;-50
2023/12/12 06:24:45;0.00;0.00;0.62;0.00;0.00;0.62;1.90;1.20;;;21.00;27.30;;;;;;2274178;60;20421;-54
2023/12/12 06:27:29;0.00;0.00;0.62;0.00;0.00;0.62;1.57;0.93;;;21.00;27.30;;;;;;2273851;60;20408;-52
2023/12/12 06:30:15;0.00;0.00;0.62;0.00;0.00;0.62;1.70;1.00;;;21.00;27.30;;;;;;2273729;60;20856;-55
2023/12/12 06:33:00;0.00;0.00;0.62;0.00;0.00;0.62;1.80;1.10;;;21.00;27.30;;;;;;2276621;60;20389;-53
2023/12/12 06:35:44;0.00;0.00;0.62;0.00;0.00;0.62;1.77;1.30;;;21.00;27.30;;;;;;2277056;60;20380;-52
2023/12/12 06:38:29;0.00;0.00;0.62;0.00;0.00;0.62;1.40;0.80;;;21.00;27.30;;;;;;2277343;60;20362;-51
2023/12/12 06:41:14;0.00;0.00;0.62;0.00;0.00;0.62;1.60;0.90;;;21.00;27.30;;;;;;2277262;60;20364;-50
2023/12/12 06:43:58;0.00;0.00;0.62;0.00;0.00;0.62;1.50;1.00;;;21.00;27.30;;;;;;2276637;60;20419;-53
2023/12/12 06:46:44;0.00;0.00;0.62;0.00;0.00;0.62;1.50;0.90;;;21.00;27.30;;;;;;2277378;60;20365;-54
2023/12/12 06:49:29;0.00;0.00;0.62;0.00;0.00;0.62;3.07;1.10;;;21.00;27.30;;;;;;2277102;60;20426;-56
2023/12/12 06:52:13;0.00;0.00;0.62;0.00;0.00;0.62;2.00;1.23;;;21.00;27.30;;;;;;2276523;60;20471;-54
2023/12/12 06:54:58;0.00;0.00;0.62;0.00;0.00;0.62;1.97;1.00;;;21.00;27.30;;;;;;2277178;60;20365;-54
2023/12/12 06:57:43;0.00;0.00;0.62;0.00;0.00;0.62;1.50;0.90;;;21.00;27.30;;;;;;2276837;60;20375;-50
2023/12/12 07:00:28;0.00;0.00;0.62;0.00;0.00;0.62;2.00;1.10;;;21.00;27.30;;;;;;2276949;60;20808;-53
2023/12/12 07:03:14;0.00;0.00;0.62;0.00;0.00;0.62;1.70;0.90;;;21.00;27.30;;;;;;2276962;60;20839;-54
2023/12/12 07:05:58;0.00;0.00;0.62;0.00;0.00;0.62;2.00;1.20;;;20.90;27.80;;;;;;2276675;60;20910;-53
2023/12/12 07:08:43;0.00;0.00;0.62;0.00;0.00;0.62;2.27;1.00;;;21.00;27.30;;;;;;2277137;60;20361;-56
2023/12/12 07:11:27;0.00;0.00;0.62;0.00;0.00;0.62;1.40;0.73;;;21.00;27.30;;;;;;2277099;60;20473;-57
2023/12/12 07:14:12;0.00;0.00;0.62;0.00;0.00;0.62;1.90;1.10;;;21.00;27.30;;;;;;2276687;60;20420;-55
2023/12/12 07:16:56;0.00;0.00;0.62;0.00;0.00;0.62;1.80;0.90;;;21.00;27.30;;;;;;2277092;60;20451;-53
2023/12/12 07:19:43;0.00;0.00;0.62;0.00;0.00;0.62;1.97;1.10;;;21.00;27.30;;;;;;2276872;60;20390;-58
2023/12/12 07:22:28;0.00;0.00;0.62;0.00;0.00;0.62;2.30;0.93;;;21.00;27.30;;;;;;2276906;60;20414;-54
2023/12/12 07:25:13;0.00;0.00;0.62;0.00;0.00;0.62;1.80;1.07;;;21.00;27.30;;;;;;2277192;60;20369;-51
2023/12/12 07:27:58;0.00;0.00;0.62;0.00;0.00;0.62;1.53;0.83;;;21.00;27.30;;;;;;2276539;60;20368;-53
2023/12/12 07:30:42;0.00;0.00;0.62;0.00;0.00;0.62;3.00;0.87;;;21.00;27.30;;;;;;2276964;60;20381;-52
2023/12/12 07:33:27;0.00;0.00;0.62;0.00;0.00;0.62;1.70;1.00;;;21.00;27.30;;;;;;2276638;60;20427;-53
2023/12/12 07:36:13;0.00;0.00;0.62;0.00;0.00;0.62;1.90;1.17;;;21.00;27.30;;;;;;2276802;60;20679;-50
2023/12/12 07:39:00;0.00;0.00;0.62;0.00;0.00;0.62;1.73;0.90;;;21.00;27.30;;;;;;2276835;60;20365;-50
2023/12/12 07:41:44;0.00;0.00;0.62;0.00;0.00;0.62;1.80;0.97;;;21.00;27.30;;;;;;2276633;60;20395;-52
2023/12/12 07:44:29;0.00;0.00;0.62;0.00;0.00;0.62;2.20;1.20;;;21.00;27.30;;;;;;2273527;60;20430;-57
2023/12/12 07:47:13;0.00;0.00;0.62;0.00;0.00;0.62;1.40;0.90;;;21.00;27.30;;;;;;2276917;60;20905;-51
2023/12/12 07:49:58;0.00;0.00;0.62;0.00;0.00;0.62;1.70;0.90;;;21.00;27.30;;;;;;2276512;60;20455;-55
2023/12/12 07:52:44;0.00;0.00;0.62;0.00;0.00;0.62;2.03;1.07;;;21.00;27.30;;;;;;2276581;60;20353;-56
2023/12/12 07:55:29;0.00;0.00;0.62;0.00;0.00;0.62;1.67;0.90;;;21.00;27.30;;;;;;2276836;60;20435;-50
2023/12/12 07:58:14;0.00;0.00;0.62;0.00;0.00;0.62;2.20;1.10;;;21.00;27.30;;;;;;2276207;60;20412;-56
2023/12/12 08:00:58;0.00;0.00;0.62;0.00;0.00;0.62;1.90;1.17;;;21.00;27.30;;;;;;2277122;60;20442;-54
2023/12/12 08:03:43;0.00;0.00;0.62;0.00;0.00;0.62;1.80;1.10;;;20.90;27.30;;;;;;2276624;60;20443;-54
2023/12/12 08:06:29;0.00;0.00;0.62;0.00;0.00;0.62;2.17;1.30;;;20.90;27.30;;;;;;2276448;60;20361;-51
2023/12/12 08:09:15;0.00;0.00;0.62;0.00;0.00;0.62;2.20;1.10;;;20.90;27.20;;;;;;2277029;60;20407;-52
2023/12/12 08:11:59;0.00;0.00;0.62;0.00;0.00;0.62;1.60;1.00;;;20.90;27.20;;;;;;2272948;60;20389;-56
2023/12/12 08:14:44;0.00;0.00;0.62;0.00;0.00;0.62;1.83;1.10;;;20.90;27.20;;;;;;2276677;60;20908;-51
2023/12/12 08:17:29;0.00;0.00;0.62;0.00;0.00;0.62;2.13;1.17;;;20.90;27.20;;;;;;2276872;60;20426;-52
2023/12/12 08:20:13;0.00;0.00;0.62;0.00;0.00;0.62;2.00;1.10;;;20.90;27.20;;;;;;2276697;60;20403;-49
2023/12/12 08:22:58;0.00;0.00;0.62;0.00;0.00;0.62;2.30;1.10;;;20.90;27.20;;;;;;2276199;60;20385;-56
2023/12/12 08:25:44;0.00;0.00;0.62;0.00;0.00;0.62;2.00;1.33;;;20.90;27.20;;;;;;2276983;60;20361;-54
2023/12/12 08:28:28;0.00;0.00;0.62;0.00;0.00;0.62;1.67;1.10;;;20.90;27.20;;;;;;2276367;60;20410;-53
2023/12/12 08:31:13;0.00;0.00;0.62;0.00;0.00;0.62;2.13;1.43;;;20.90;27.20;;;;;;2276926;60;20381;-54
2023/12/12 08:34:00;0.00;0.00;0.62;0.00;0.00;0.62;3.20;1.80;;;20.90;27.20;;;;;;2276034;60;20843;-51
2023/12/12 08:36:45;0.00;0.00;0.62;0.00;0.00;0.62;2.87;1.73;;;20.90;27.30;;;;;;2276907;60;20568;-54
2023/12/12 08:39:30;0.00;0.00;0.62;0.00;0.00;0.62;2.57;2.00;;;20.90;27.20;;;;;;2276845;60;20364;-56
2023/12/12 08:42:16;0.00;0.00;0.62;0.00;0.00;0.62;2.60;1.93;;;20.90;27.30;;;;;;2276229;60;20362;-52
2023/12/12 08:45:01;0.00;0.00;0.62;0.00;0.00;0.62;3.67;2.03;;;20.90;27.20;;;;;;2276723;60;20365;-54
2023/12/12 08:47:45;0.00;0.00;0.62;0.00;0.00;0.62;2.80;2.00;;;20.90;27.20;;;;;;2276898;60;20804;-54
2023/12/12 08:50:30;0.00;0.00;0.62;0.00;0.00;0.62;3.40;2.50;;;20.90;27.30;;;;;;2276361;60;20426;-55
2023/12/12 08:53:15;0.00;0.00;0.62;0.00;0.00;0.62;3.00;2.50;;;20.90;27.20;;;;;;2276352;60;20473;-50
2023/12/12 08:56:00;0.00;0.00;0.62;0.00;0.00;0.62;4.03;3.03;;;21.00;27.30;;;;;;2276418;60;20410;-51
2023/12/12 08:58:48;0.00;0.00;0.62;0.00;0.00;0.62;4.13;2.70;;;20.90;27.20;;;;;;2276782;60;20361;-52
2023/12/12 09:01:33;0.00;0.00;0.62;0.00;0.00;0.62;4.27;2.87;;;20.90;27.20;;;;;;2276491;60;20902;-51
2023/12/12 09:04:18;0.00;0.00;0.62;0.00;0.00;0.62;3.70;2.70;;;20.90;27.30;;;;;;2276445;60;20435;-50
2023/12/12 09:07:02;0.00;0.00;0.62;0.00;0.00;0.62;5.10;3.67;;;20.90;27.20;;;;;;2276680;60;20357;-51
2023/12/12 09:09:47;0.00;0.00;0.62;0.00;0.00;0.62;4.00;2.90;;;20.90;27.20;;;;;;2276628;60;20441;-56
2023/12/12 09:12:32;0.00;0.00;0.62;0.00;0.00;0.62;4.23;3.30;;;20.90;27.20;;;;;;2275904;60;20414;-55
2023/12/12 09:15:18;0.00;0.00;0.62;0.00;0.00;0.62;4.00;3.13;;;21.00;27.30;;;;;;2276812;60;20357;-54
2023/12/12 09:18:03;0.00;0.00;0.62;0.00;0.00;0.62;5.40;3.47;;;21.00;27.30;;;;;;2276728;60;20878;-52
2023/12/12 09:20:48;0.00;0.00;0.62;0.00;0.00;0.62;4.93;3.63;;;21.00;27.30;;;;;;2276730;60;20431;-55
2023/12/12 09:23:33;0.00;0.00;0.62;0.00;0.00;0.62;4.13;3.20;;;21.00;27.30;;;;;;2276258;60;20778;-54
2023/12/12 09:26:18;0.00;0.00;0.62;0.00;0.00;0.62;3.93;2.83;;;20.90;27.20;;;;;;2276486;60;20372;-49
2023/12/12 09:29:04;0.00;0.00;0.62;0.00;0.00;0.62;4.87;4.20;;;21.00;27.30;;;;;;2276696;60;20773;-55
2023/12/12 09:31:50;0.00;0.00;0.62;0.00;0.00;0.62;4.60;3.87;;;21.00;27.30;;;;;;2272796;60;20377;-54
2023/12/12 09:34:35;0.00;0.00;0.62;0.00;0.00;0.62;4.60;3.47;;;21.00;27.30;;;;;;2276274;60;20397;-54
2023/12/12 09:37:22;0.00;0.00;0.62;0.00;0.00;0.62;4.47;3.40;;;21.00;27.30;;;;;;2276630;60;20829;-54
2023/12/12 09:40:09;0.00;0.00;0.62;0.00;0.00;0.62;4.20;3.60;;;21.00;27.30;;;;;;2276406;60;20892;-50
2023/12/12 09:42:55;0.00;0.00;0.62;0.00;0.00;0.62;4.60;3.80;;;20.90;27.20;;;;;;2277081;60;20932;-52
2023/12/12 09:45:48;0.00;0.00;0.62;0.00;0.00;0.62;4.30;3.37;;;21.00;27.30;;;;;;2277415;60;20404;-53
2023/12/12 09:48:35;0.00;0.00;0.62;0.00;0.00;0.62;4.10;3.23;;;21.00;27.30;;;;;;2276904;60;20788;-55
2023/12/12 09:51:20;0.00;0.00;0.62;0.00;0.00;0.62;3.63;3.23;;;21.00;27.30;;;;;;2273889;60;20433;-49
2023/12/12 09:54:07;0.00;0.00;0.62;0.00;0.00;0.62;4.33;3.10;;;21.00;27.30;;;;;;2277309;60;20932;-51
2023/12/12 09:56:54;0.00;0.00;0.62;0.00;0.00;0.62;4.93;3.27;;;21.00;27.30;;;;;;2276822;60;20360;-51
2023/12/12 09:59:39;0.00;0.00;0.62;0.00;0.00;0.62;4.83;3.60;;;21.00;27.30;;;;;;2277472;60;20410;-52
2023/12/12 10:02:35;0.00;0.00;0.62;0.00;0.00;0.62;4.63;3.60;;;20.90;27.30;;;;;;2273741;60;20938;-53
2023/12/12 10:05:21;0.00;0.00;0.62;0.00;0.00;0.62;4.33;2.83;;;21.00;27.30;;;;;;2277445;60;20353;-54
2023/12/12 10:08:06;0.00;0.00;0.62;0.00;0.00;0.62;4.67;3.17;;;21.00;27.30;;;;;;2277405;60;20385;-54
2023/12/12 10:10:52;0.00;0.00;0.62;0.00;0.00;0.62;5.00;3.37;;;21.00;27.30;;;;;;2277076;60;20913;-49
2023/12/12 10:13:50;0.00;0.00;0.62;0.00;0.00;0.62;3.70;2.73;;;21.00;27.30;;;;;;2276798;60;20768;-51
2023/12/12 10:16:35;0.00;0.00;0.62;0.00;0.00;0.62;5.57;3.77;;;20.90;27.20;;;;;;2277267;60;20450;-54
2023/12/12 10:19:19;0.00;0.00;0.62;0.00;0.00;0.62;4.20;3.27;;;21.00;27.30;;;;;;2276936;60;20362;-51
2023/12/12 10:22:06;0.00;0.00;0.62;0.00;0.00;0.62;3.90;3.20;;;21.00;27.30;;;;;;2276851;60;20357;-51
2023/12/12 10:24:52;0.00;0.00;0.62;0.00;0.00;0.62;3.57;2.87;;;21.00;27.30;;;;;;2276891;60;20389;-53
2023/12/12 10:27:41;0.00;0.00;0.62;0.00;0.00;0.62;3.90;2.97;;;21.00;27.30;;;;;;2277146;60;20393;-51
2023/12/12 10:30:26;0.00;0.00;0.62;0.00;0.00;0.62;4.30;3.30;;;20.90;27.30;;;;;;2277000;60;20515;-53
2023/12/12 10:33:14;0.00;0.00;0.62;0.00;0.00;0.62;4.30;3.20;;;21.00;27.30;;;;;;2276565;60;20920;-50
2023/12/12 10:36:03;0.00;0.00;0.62;0.00;0.00;0.62;4.87;3.43;;;20.90;27.30;;;;;;2277281;60;20761;-55
2023/12/12 10:38:48;0.00;0.00;0.62;0.00;0.00;0.62;4.10;3.40;;;21.00;27.30;;;;;;2273245;60;20975;-49
2023/12/12 10:41:33;0.00;0.00;0.62;0.00;0.00;0.62;3.80;3.20;;;21.00;27.30;;;;;;2268568;61;20364;-53
2023/12/12 10:44:21;0.00;0.00;0.62;0.00;0.00;0.62;4.20;2.97;;;20.90;27.20;;;;;;2269103;61;20406;-55
2023/12/12 10:47:09;0.00;0.00;0.62;0.00;0.00;0.62;5.57;4.27;;;20.90;27.20;;;;;;2268719;61;20378;-53
2023/12/12 10:49:56;0.00;0.00;0.62;0.00;0.00;0.62;5.23;3.90;;;21.00;27.30;;;;;;2269135;61;20371;-50
2023/12/12 10:52:43;0.00;0.00;0.62;0.00;0.00;0.62;5.37;4.27;;;21.00;27.30;;;;;;2268474;61;20891;-54
2023/12/12 10:55:31;0.00;0.00;0.62;0.00;0.00;0.62;7.00;5.00;;;21.00;27.30;;;;;;2268747;61;20749;-50